WXM80 ListenWXM80 Stop

You find our weather info also at:

UK Metoffice

WeatherCloud

Weather Underground

Northeastern Weather Network

AWEKAS

Citizen Weather Observer Program (CWOP)

HAMweather, WeatherForYou, PWS Weather


Weather Underground History page Text

Daily Summary for February 16, 2018 Units:  English    Metric   Both
« Previous Day
Next Day »
Daily Weekly Monthly Yearly Custom
  High: Low: Average:
Temperature: 56.9 °F 36.5 °F 49.2 °F
Dew Point: 54.7 °F 28.1 °F 45.6 °F
Humidity: 98 % 70 % 87 %
Wind Speed: 9.6 mph 0.0 mph 2.8 mph
Wind Gust: 18.4 mph - -
Wind:- - West
Pressure: 29.91 in 29.32 in -
Precipitation: 0.00 in    
Historical Graphs
 
 
Tabular Data for February 16, 2018
Time Temperature Dew Point Pressure Wind Wind Speed Wind Gust Humidity Rainfall Rate (Hourly)
00:01 54.4 °F 53.0 °F 29.40 in SW 2.9 mph 5.8 mph 95 % 0.00 in
00:06 54.5 °F 53.1 °F 29.40 in SW 5.0 mph 8.0 mph 95 % 0.00 in
00:11 54.6 °F 53.2 °F 29.40 in SW 3.0 mph 8.0 mph 95 % 0.00 in
00:16 54.7 °F 53.6 °F 29.40 in SW 3.5 mph 5.8 mph 96 % 0.00 in
00:21 54.8 °F 53.7 °F 29.39 in SSW 2.3 mph 4.6 mph 96 % 0.00 in
00:26 55.0 °F 53.9 °F 29.38 in SW 3.8 mph 8.1 mph 96 % 0.00 in
00:31 55.2 °F 54.1 °F 29.37 in SSW 3.2 mph 6.9 mph 96 % 0.00 in
00:36 55.4 °F 54.3 °F 29.37 in SSW 2.0 mph 5.8 mph 96 % 0.00 in
00:41 55.5 °F 54.4 °F 29.36 in SSW 2.4 mph 3.5 mph 96 % 0.00 in
00:46 55.6 °F 54.5 °F 29.36 in South 3.1 mph 6.0 mph 96 % 0.00 in
00:51 55.6 °F 54.5 °F 29.35 in SSW 1.0 mph 4.0 mph 96 % 0.00 in
00:56 55.7 °F 54.6 °F 29.34 in South 3.8 mph 5.8 mph 96 % 0.00 in
01:01 55.7 °F 54.6 °F 29.34 in SSE 1.2 mph 4.0 mph 96 % 0.00 in
01:06 55.8 °F 54.7 °F 29.33 in South 0.4 mph 1.0 mph 96 % 0.00 in
01:11 55.8 °F 54.7 °F 29.33 in South 0.4 mph 2.0 mph 96 % 0.00 in
01:16 55.7 °F 54.6 °F 29.34 in South 0.4 mph 1.2 mph 96 % 0.00 in
01:21 55.7 °F 54.6 °F 29.33 in WSW 0.7 mph 3.5 mph 96 % 0.00 in
01:26 55.7 °F 54.6 °F 29.33 in WSW 0.3 mph 2.3 mph 96 % 0.00 in
01:31 54.9 °F 53.5 °F 29.33 in West 1.4 mph 2.3 mph 95 % 0.00 in
01:36 54.2 °F 52.5 °F 29.33 in NW 2.4 mph 3.5 mph 94 % 0.00 in
01:41 53.2 °F 50.6 °F 29.34 in NW 1.9 mph 3.5 mph 91 % 0.00 in
01:46 52.5 °F 49.7 °F 29.34 in Calm   1.2 mph 90 % 0.00 in
01:52 51.9 °F 49.1 °F 29.35 in Calm     90 % 0.00 in
02:02 51.2 °F 48.7 °F 29.35 in NW 0.3 mph 1.2 mph 91 % 0.00 in
02:07 50.8 °F 48.3 °F 29.35 in Calm     91 % 0.00 in
02:12 50.4 °F 47.9 °F 29.35 in Calm     91 % 0.00 in
02:17 50.1 °F 47.6 °F 29.35 in Calm     91 % 0.00 in
02:22 49.9 °F 47.4 °F 29.35 in Calm     91 % 0.00 in
02:27 49.6 °F 47.4 °F 29.35 in Calm     92 % 0.00 in
02:32 49.4 °F 47.2 °F 29.35 in Calm     92 % 0.00 in
02:37 49.1 °F 46.9 °F 29.35 in Calm     92 % 0.00 in
02:42 49.0 °F 46.8 °F 29.34 in Calm     92 % 0.00 in
02:47 48.9 °F 47.0 °F 29.34 in Calm     93 % 0.00 in
02:52 48.8 °F 46.9 °F 29.33 in NW 1.0 mph 2.3 mph 93 % 0.00 in
02:57 48.8 °F 46.9 °F 29.33 in Calm   1.0 mph 93 % 0.00 in
03:02 48.7 °F 46.8 °F 29.32 in NW 0.4 mph 2.3 mph 93 % 0.00 in
03:07 48.9 °F 47.2 °F 29.32 in SW 0.4 mph 1.2 mph 94 % 0.00 in
03:12 49.4 °F 48.0 °F 29.32 in SW 0.9 mph 4.0 mph 95 % 0.00 in
03:17 49.9 °F 48.8 °F 29.32 in WSW 0.9 mph 3.5 mph 96 % 0.00 in
03:22 50.3 °F 49.2 °F 29.32 in WSW 2.7 mph 5.0 mph 96 % 0.00 in
03:28 51.1 °F 50.3 °F 29.33 in WSW 5.9 mph 8.1 mph 97 % 0.00 in
03:33 51.6 °F 50.8 °F 29.32 in WSW 0.8 mph 2.3 mph 97 % 0.00 in
03:38 52.1 °F 51.3 °F 29.32 in SW 2.5 mph 4.0 mph 97 % 0.00 in
03:43 52.4 °F 51.6 °F 29.33 in SW 3.4 mph 5.0 mph 97 % 0.00 in
03:48 52.6 °F 51.8 °F 29.33 in SW 0.2 mph 2.3 mph 97 % 0.00 in
03:53 52.8 °F 52.0 °F 29.34 in WSW 0.3 mph 3.5 mph 97 % 0.00 in
03:58 53.0 °F 52.2 °F 29.33 in West 0.1 mph 2.3 mph 97 % 0.00 in
04:03 53.1 °F 52.3 °F 29.34 in Calm     97 % 0.00 in
04:08 53.0 °F 52.2 °F 29.33 in Calm     97 % 0.00 in
04:13 52.7 °F 51.9 °F 29.32 in Calm     97 % 0.00 in
04:18 52.6 °F 51.8 °F 29.32 in Calm     97 % 0.00 in
04:23 52.4 °F 51.6 °F 29.32 in Calm     97 % 0.00 in
04:28 52.2 °F 51.4 °F 29.32 in Calm     97 % 0.00 in
04:33 52.1 °F 51.3 °F 29.32 in Calm     97 % 0.00 in
04:39 52.0 °F 51.2 °F 29.33 in Calm     97 % 0.00 in
04:44 51.8 °F 51.0 °F 29.33 in Calm     97 % 0.00 in
04:49 51.7 °F 50.6 °F 29.33 in West 0.3 mph 1.2 mph 96 % 0.00 in
04:54 51.3 °F 50.2 °F 29.32 in WNW 0.2 mph 1.2 mph 96 % 0.00 in
04:59 51.0 °F 49.9 °F 29.32 in Calm     96 % 0.00 in
05:04 50.8 °F 49.7 °F 29.32 in Calm     96 % 0.00 in
05:09 50.6 °F 49.5 °F 29.32 in Calm     96 % 0.00 in
05:14 50.4 °F 49.3 °F 29.32 in Calm     96 % 0.00 in
05:19 50.2 °F 49.1 °F 29.32 in Calm     96 % 0.00 in
05:24 50.1 °F 49.0 °F 29.32 in Calm     96 % 0.00 in
05:29 49.9 °F 48.8 °F 29.32 in Calm     96 % 0.00 in
05:34 49.8 °F 48.7 °F 29.32 in Calm     96 % 0.00 in
05:39 49.7 °F 48.6 °F 29.32 in Calm     96 % 0.00 in
05:44 49.7 °F 48.6 °F 29.32 in WNW 0.1 mph   96 % 0.00 in
05:49 49.7 °F 48.6 °F 29.33 in Calm     96 % 0.00 in
05:55 49.6 °F 48.5 °F 29.33 in Calm     96 % 0.00 in
06:00 49.6 °F 48.5 °F 29.33 in Calm     96 % 0.00 in
06:05 49.5 °F 48.4 °F 29.33 in Calm     96 % 0.00 in
06:10 49.5 °F 48.4 °F 29.34 in NW 2.9 mph 9.2 mph 96 % 0.00 in
06:15 49.4 °F 48.3 °F 29.34 in WNW 1.6 mph 3.5 mph 96 % 0.00 in
06:20 49.3 °F 48.2 °F 29.34 in Calm   1.2 mph 96 % 0.00 in
06:25 49.3 °F 48.2 °F 29.34 in WSW 1.5 mph 3.5 mph 96 % 0.00 in
06:30 49.3 °F 48.2 °F 29.34 in WSW 1.5 mph 2.3 mph 96 % 0.00 in
06:35 49.3 °F 48.2 °F 29.34 in WSW 0.3 mph 2.0 mph 96 % 0.00 in
06:40 49.3 °F 48.2 °F 29.33 in WSW 0.3 mph 2.3 mph 96 % 0.00 in
06:45 49.4 °F 48.3 °F 29.33 in WSW 0.1 mph 1.2 mph 96 % 0.00 in
06:50 49.5 °F 48.7 °F 29.33 in WSW 0.2 mph 3.5 mph 97 % 0.00 in
06:55 49.7 °F 48.9 °F 29.32 in WSW 1.4 mph 2.3 mph 97 % 0.00 in
07:00 49.9 °F 49.1 °F 29.34 in WSW 1.0 mph 2.0 mph 97 % 0.00 in
07:05 50.1 °F 49.3 °F 29.34 in WSW 1.2 mph 3.5 mph 97 % 0.00 in
07:10 50.4 °F 49.6 °F 29.35 in WSW 0.6 mph 3.0 mph 97 % 0.00 in
07:15 50.9 °F 50.1 °F 29.35 in WNW 3.7 mph 5.8 mph 97 % 0.00 in
07:20 51.8 °F 51.3 °F 29.36 in NNW 4.4 mph 9.2 mph 98 % 0.00 in
07:26 51.9 °F 51.4 °F 29.37 in North 3.0 mph 7.0 mph 98 % 0.00 in
07:31 51.5 °F 50.7 °F 29.37 in NNW 3.0 mph 10.0 mph 97 % 0.00 in
07:36 51.1 °F 50.3 °F 29.38 in NNW 5.0 mph 7.0 mph 97 % 0.00 in
07:41 50.7 °F 49.9 °F 29.38 in North 5.0 mph 8.0 mph 97 % 0.00 in
07:46 50.5 °F 49.7 °F 29.38 in North 1.0 mph 5.0 mph 97 % 0.00 in
07:51 50.3 °F 49.5 °F 29.38 in North 1.0 mph 4.0 mph 97 % 0.00 in
07:56 50.2 °F 49.4 °F 29.39 in Calm   3.0 mph 97 % 0.00 in
08:01 50.2 °F 49.4 °F 29.38 in North 0.2 mph 2.3 mph 97 % 0.00 in
08:06 50.1 °F 49.3 °F 29.38 in North 1.4 mph 3.5 mph 97 % 0.00 in
08:11 50.1 °F 49.3 °F 29.38 in Calm     97 % 0.00 in
08:16 50.1 °F 49.3 °F 29.38 in Calm     97 % 0.00 in
08:21 50.1 °F 49.3 °F 29.39 in Calm     97 % 0.00 in
08:26 50.1 °F 49.3 °F 29.39 in Calm     97 % 0.00 in
08:31 50.2 °F 49.4 °F 29.38 in Calm     97 % 0.00 in
08:36 50.3 °F 49.5 °F 29.38 in Calm     97 % 0.00 in
08:41 50.3 °F 49.5 °F 29.38 in Calm     97 % 0.00 in
08:46 50.5 °F 49.7 °F 29.37 in Calm     97 % 0.00 in
08:51 50.6 °F 49.8 °F 29.37 in Calm     97 % 0.00 in
08:56 50.7 °F 49.9 °F 29.36 in Calm     97 % 0.00 in
09:01 50.8 °F 50.0 °F 29.37 in Calm     97 % 0.00 in
09:06 50.9 °F 50.1 °F 29.37 in Calm     97 % 0.00 in
09:11 51.0 °F 50.2 °F 29.36 in Calm     97 % 0.00 in
09:17 51.2 °F 50.4 °F 29.36 in Calm     97 % 0.00 in
09:22 51.4 °F 50.6 °F 29.35 in East 1.6 mph 2.3 mph 97 % 0.00 in
09:27 51.6 °F 50.8 °F 29.35 in SE 0.3 mph 2.0 mph 97 % 0.00 in
09:32 51.7 °F 50.9 °F 29.35 in SE 0.2 mph 2.3 mph 97 % 0.00 in
09:37 51.7 °F 50.9 °F 29.35 in SE 1.3 mph 3.5 mph 97 % 0.00 in
09:42 51.9 °F 51.1 °F 29.36 in SSW 2.5 mph 3.5 mph 97 % 0.00 in
09:47 52.0 °F 51.2 °F 29.36 in Calm     97 % 0.00 in
09:52 52.1 °F 51.3 °F 29.35 in SSW 0.9 mph 2.3 mph 97 % 0.00 in
09:57 52.3 °F 51.8 °F 29.35 in Calm   2.3 mph 98 % 0.00 in
10:02 52.5 °F 51.7 °F 29.36 in SW 0.3 mph 2.0 mph 97 % 0.00 in
10:07 52.8 °F 52.0 °F 29.36 in SW 1.5 mph 4.6 mph 97 % 0.00 in
10:12 53.0 °F 52.5 °F 29.36 in SW 0.1 mph 1.2 mph 98 % 0.00 in
10:17 53.2 °F 52.7 °F 29.37 in WSW 2.7 mph 3.5 mph 98 % 0.00 in
10:22 53.6 °F 53.0 °F 29.37 in SW 0.9 mph 3.0 mph 98 % 0.00 in
10:27 53.8 °F 53.2 °F 29.37 in WSW 2.4 mph 6.0 mph 98 % 0.00 in
10:32 54.0 °F 53.4 °F 29.37 in SW 3.0 mph 4.0 mph 98 % 0.00 in
10:37 54.2 °F 53.6 °F 29.36 in SW 4.0 mph 4.0 mph 98 % 0.00 in
10:43 54.3 °F 53.7 °F 29.36 in SW 3.2 mph 6.9 mph 98 % 0.00 in
10:48 54.5 °F 53.9 °F 29.36 in WSW 4.3 mph 8.1 mph 98 % 0.00 in
10:53 54.6 °F 54.0 °F 29.37 in West 0.6 mph 3.5 mph 98 % 0.00 in
10:58 54.7 °F 54.1 °F 29.37 in West 4.0 mph 8.0 mph 98 % 0.00 in
11:03 54.8 °F 54.2 °F 29.37 in SW 5.0 mph 8.1 mph 98 % 0.00 in
11:08 54.9 °F 54.1 °F 29.38 in SW 1.9 mph 8.1 mph 97 % 0.00 in
11:13 55.0 °F 54.2 °F 29.38 in South 5.1 mph 10.0 mph 97 % 0.00 in
11:18 55.2 °F 54.1 °F 29.38 in West 4.1 mph 8.1 mph 96 % 0.00 in
11:23 55.4 °F 54.3 °F 29.37 in WSW 4.4 mph 5.8 mph 96 % 0.00 in
11:28 55.6 °F 54.2 °F 29.37 in West 2.4 mph 10.0 mph 95 % 0.00 in
11:33 55.6 °F 53.9 °F 29.37 in WSW 5.8 mph 9.0 mph 94 % 0.00 in
11:38 55.7 °F 53.4 °F 29.38 in WSW 5.2 mph 8.1 mph 92 % 0.00 in
11:43 55.7 °F 53.1 °F 29.40 in WSW 4.1 mph 6.9 mph 91 % 0.00 in
11:48 55.7 °F 52.8 °F 29.40 in West 6.9 mph 11.5 mph 90 % 0.00 in
11:53 55.6 °F 52.4 °F 29.40 in SW 4.1 mph 6.0 mph 89 % 0.00 in
11:58 55.6 °F 52.1 °F 29.37 in SW 1.2 mph 6.9 mph 88 % 0.00 in
12:03 55.6 °F 52.1 °F 29.37 in West 0.5 mph 5.8 mph 88 % 0.00 in
12:08 55.7 °F 52.2 °F 29.37 in WNW 3.8 mph 9.2 mph 88 % 0.00 in
12:13 55.7 °F 52.2 °F 29.37 in West 3.6 mph 10.4 mph 88 % 0.00 in
12:18 55.8 °F 52.0 °F 29.37 in West 4.1 mph 8.1 mph 87 % 0.00 in
12:24 55.9 °F 52.1 °F 29.37 in West 1.4 mph 2.3 mph 87 % 0.00 in
12:34 56.1 °F 52.0 °F 29.38 in West 3.1 mph 4.6 mph 86 % 0.00 in
12:39 56.2 °F 52.4 °F 29.38 in WNW 0.7 mph 5.8 mph 87 % 0.00 in
12:44 56.3 °F 52.5 °F 29.37 in WSW 3.5 mph 5.8 mph 87 % 0.00 in
12:49 56.4 °F 52.3 °F 29.37 in WNW 4.1 mph 8.1 mph 86 % 0.00 in
12:54 56.5 °F 52.4 °F 29.37 in WSW 1.9 mph 4.6 mph 86 % 0.00 in
12:59 56.6 °F 52.1 °F 29.37 in WSW 1.3 mph 5.0 mph 85 % 0.00 in
13:04 56.6 °F 52.1 °F 29.37 in WSW 1.3 mph 3.5 mph 85 % 0.00 in
13:09 56.7 °F 52.2 °F 29.37 in WSW 1.8 mph 3.5 mph 85 % 0.00 in
13:14 56.7 °F 51.9 °F 29.37 in West 5.6 mph 8.1 mph 84 % 0.00 in
13:19 56.7 °F 52.2 °F 29.37 in West 2.3 mph 6.9 mph 85 % 0.00 in
13:24 56.8 °F 52.3 °F 29.37 in West 4.3 mph 6.9 mph 85 % 0.00 in
13:29 56.8 °F 52.3 °F 29.37 in WSW 1.6 mph 3.5 mph 85 % 0.00 in
13:34 56.9 °F 52.4 °F 29.37 in WSW 0.4 mph 3.5 mph 85 % 0.00 in
13:39 56.9 °F 52.4 °F 29.36 in SW 0.4 mph 2.3 mph 85 % 0.00 in
13:45 56.9 °F 52.1 °F 29.37 in WSW 2.9 mph 4.6 mph 84 % 0.00 in
13:50 56.9 °F 52.1 °F 29.37 in WSW 1.1 mph 3.5 mph 84 % 0.00 in
13:55 56.9 °F 52.4 °F 29.37 in WSW 1.5 mph 3.5 mph 85 % 0.00 in
14:00 56.8 °F 52.0 °F 29.37 in West 1.1 mph 3.5 mph 84 % 0.00 in
14:05 56.8 °F 52.3 °F 29.37 in WSW 0.9 mph 4.0 mph 85 % 0.00 in
14:10 56.8 °F 52.3 °F 29.38 in SW 3.9 mph 4.6 mph 85 % 0.00 in
14:15 56.8 °F 52.0 °F 29.38 in WSW 2.3 mph 5.8 mph 84 % 0.00 in
14:20 56.9 °F 52.1 °F 29.39 in WNW 2.5 mph 6.9 mph 84 % 0.00 in
14:25 56.8 °F 52.0 °F 29.39 in WNW 4.8 mph 8.1 mph 84 % 0.00 in
14:30 56.6 °F 50.5 °F 29.40 in West 3.9 mph 6.9 mph 80 % 0.00 in
14:35 56.4 °F 49.6 °F 29.40 in WNW 4.1 mph 10.4 mph 78 % 0.00 in
14:40 56.2 °F 49.1 °F 29.40 in West 4.2 mph 9.2 mph 77 % 0.00 in
14:45 55.9 °F 48.4 °F 29.41 in WNW 4.1 mph 9.2 mph 76 % 0.00 in
14:50 55.5 °F 47.7 °F 29.41 in West 7.6 mph 11.5 mph 75 % 0.00 in
14:55 55.2 °F 47.8 °F 29.42 in WNW 5.2 mph 12.7 mph 76 % 0.00 in
15:00 54.9 °F 48.2 °F 29.42 in West 3.3 mph 9.0 mph 78 % 0.00 in
15:05 54.5 °F 47.8 °F 29.42 in WSW 4.4 mph 6.0 mph 78 % 0.00 in
15:10 54.2 °F 47.8 °F 29.43 in NW 7.8 mph 13.8 mph 79 % 0.00 in
15:15 53.7 °F 47.3 °F 29.44 in NNW 5.3 mph 13.8 mph 79 % 0.00 in
15:20 52.8 °F 46.1 °F 29.45 in WNW 5.0 mph 13.0 mph 78 % 0.00 in
15:25 51.7 °F 45.8 °F 29.46 in WNW 5.0 mph 13.0 mph 80 % 0.00 in
15:31 50.9 °F 45.3 °F 29.46 in WNW 5.0 mph 12.0 mph 81 % 0.00 in
15:36 50.3 °F 45.3 °F 29.46 in WNW 3.0 mph 12.0 mph 83 % 0.00 in
15:41 49.8 °F 45.5 °F 29.46 in WNW 7.2 mph 11.5 mph 85 % 0.00 in
15:46 49.5 °F 45.5 °F 29.47 in WNW 6.0 mph 10.4 mph 86 % 0.00 in
15:51 49.3 °F 45.6 °F 29.47 in WNW 3.5 mph 8.1 mph 87 % 0.00 in
15:56 49.1 °F 45.7 °F 29.48 in NW 4.2 mph 8.1 mph 88 % 0.00 in
16:01 49.0 °F 45.9 °F 29.48 in WNW 3.9 mph 9.0 mph 89 % 0.00 in
16:06 48.9 °F 45.8 °F 29.48 in WNW 3.9 mph 8.1 mph 89 % 0.00 in
16:11 48.8 °F 45.7 °F 29.48 in WSW 3.5 mph 6.9 mph 89 % 0.00 in
16:16 48.7 °F 45.6 °F 29.48 in West 7.7 mph 9.2 mph 89 % 0.00 in
16:21 48.5 °F 45.4 °F 29.49 in West 4.4 mph 9.2 mph 89 % 0.00 in
16:26 48.4 °F 45.3 °F 29.51 in West 6.3 mph 10.4 mph 89 % 0.00 in
16:31 48.3 °F 45.2 °F 29.51 in West 4.8 mph 6.9 mph 89 % 0.00 in
16:36 48.1 °F 45.0 °F 29.52 in WNW 7.6 mph 13.8 mph 89 % 0.00 in
16:41 47.8 °F 44.4 °F 29.52 in NW 4.2 mph 10.4 mph 88 % 0.00 in
16:46 47.7 °F 44.3 °F 29.52 in WNW 3.9 mph 8.1 mph 88 % 0.00 in
16:52 47.5 °F 44.1 °F 29.52 in NW 5.3 mph 9.2 mph 88 % 0.00 in
16:57 47.2 °F 43.5 °F 29.52 in WNW 2.2 mph 4.0 mph 87 % 0.00 in
17:02 47.0 °F 43.3 °F 29.53 in NW 3.0 mph 5.8 mph 87 % 0.00 in
17:07 46.7 °F 43.0 °F 29.53 in WNW 2.7 mph 8.1 mph 87 % 0.00 in
17:12 46.5 °F 42.8 °F 29.54 in WNW 2.6 mph 11.5 mph 87 % 0.00 in
17:17 46.2 °F 42.2 °F 29.54 in NW 2.7 mph 9.0 mph 86 % 0.00 in
17:22 46.0 °F 41.7 °F 29.55 in NW 6.8 mph 11.5 mph 85 % 0.00 in
17:27 45.8 °F 41.2 °F 29.55 in WNW 3.2 mph 11.5 mph 84 % 0.00 in
17:32 45.6 °F 40.7 °F 29.56 in West 6.3 mph 11.5 mph 83 % 0.00 in
17:37 45.6 °F 40.4 °F 29.57 in NW 4.4 mph 10.4 mph 82 % 0.00 in
17:42 45.5 °F 40.0 °F 29.57 in WNW 9.6 mph 11.5 mph 81 % 0.00 in
17:47 45.5 °F 39.7 °F 29.57 in NW 7.9 mph 13.8 mph 80 % 0.00 in
17:52 45.4 °F 38.9 °F 29.57 in West 7.5 mph 13.8 mph 78 % 0.00 in
17:57 45.2 °F 39.1 °F 29.58 in WNW 2.9 mph 6.9 mph 79 % 0.00 in
18:02 45.2 °F 39.4 °F 29.59 in West 5.9 mph 6.0 mph 80 % 0.00 in
18:07 45.1 °F 39.6 °F 29.60 in WNW 3.5 mph 5.0 mph 81 % 0.00 in
18:13 45.1 °F 39.6 °F 29.59 in WNW 5.7 mph 9.2 mph 81 % 0.00 in
18:18 44.9 °F 39.1 °F 29.60 in West 4.2 mph 16.1 mph 80 % 0.00 in
18:23 44.6 °F 38.2 °F 29.61 in West 6.7 mph 17.3 mph 78 % 0.00 in
18:28 44.3 °F 37.2 °F 29.62 in NW 6.6 mph 12.7 mph 76 % 0.00 in
18:33 44.2 °F 36.8 °F 29.63 in NNW 7.6 mph 12.7 mph 75 % 0.00 in
18:38 44.0 °F 36.6 °F 29.63 in NNW 6.6 mph 12.7 mph 75 % 0.00 in
18:43 43.8 °F 36.7 °F 29.64 in NW 7.4 mph 11.5 mph 76 % 0.00 in
18:48 43.7 °F 36.6 °F 29.64 in NW 4.7 mph 8.1 mph 76 % 0.00 in
18:53 43.6 °F 36.5 °F 29.64 in NW 6.8 mph 11.5 mph 76 % 0.00 in
18:58 43.4 °F 36.3 °F 29.64 in NNW 6.6 mph 11.5 mph 76 % 0.00 in
19:03 43.3 °F 35.9 °F 29.64 in NNW 4.2 mph 11.5 mph 75 % 0.00 in
19:08 43.2 °F 36.1 °F 29.64 in NNW 4.0 mph 9.2 mph 76 % 0.00 in
19:13 43.1 °F 36.0 °F 29.65 in NNW 3.7 mph 10.4 mph 76 % 0.00 in
19:18 43.0 °F 36.0 °F 29.66 in NW 6.7 mph 12.7 mph 76 % 0.00 in
19:23 42.8 °F 35.8 °F 29.67 in NNW 8.1 mph 13.8 mph 76 % 0.00 in
19:28 42.7 °F 35.3 °F 29.67 in NW 6.2 mph 11.5 mph 75 % 0.00 in
19:33 42.5 °F 35.1 °F 29.68 in WNW 7.8 mph 16.1 mph 75 % 0.00 in
19:38 42.5 °F 35.1 °F 29.68 in NW 6.5 mph 14.0 mph 75 % 0.00 in
19:44 42.4 °F 34.7 °F 29.69 in NNW 6.6 mph 11.5 mph 74 % 0.00 in
19:49 42.3 °F 34.6 °F 29.70 in NW 7.3 mph 12.7 mph 74 % 0.00 in
19:54 42.3 °F 34.9 °F 29.70 in NW 8.0 mph 15.0 mph 75 % 0.00 in
19:59 42.1 °F 34.4 °F 29.70 in NNW 6.5 mph 18.4 mph 74 % 0.00 in
20:04 42.0 °F 34.3 °F 29.71 in WNW 8.8 mph 12.7 mph 74 % 0.00 in
20:09 41.9 °F 34.2 °F 29.70 in West 7.1 mph 16.1 mph 74 % 0.00 in
20:14 41.7 °F 34.0 °F 29.71 in WNW 5.4 mph 11.5 mph 74 % 0.00 in
20:19 41.5 °F 33.5 °F 29.72 in NNW 5.9 mph 9.2 mph 73 % 0.00 in
20:24 41.4 °F 33.4 °F 29.72 in WNW 5.7 mph 15.0 mph 73 % 0.00 in
20:29 41.3 °F 33.3 °F 29.72 in NW 5.5 mph 10.4 mph 73 % 0.00 in
20:34 41.1 °F 33.1 °F 29.73 in NW 6.3 mph 11.5 mph 73 % 0.00 in
20:39 41.0 °F 33.0 °F 29.74 in NW 5.3 mph 11.5 mph 73 % 0.00 in
20:44 40.9 °F 32.9 °F 29.74 in NW 5.6 mph 11.5 mph 73 % 0.00 in
20:49 40.7 °F 32.7 °F 29.75 in NW 5.0 mph 10.4 mph 73 % 0.00 in
20:54 40.5 °F 32.5 °F 29.75 in NW 3.2 mph 10.4 mph 73 % 0.00 in
20:59 40.4 °F 32.1 °F 29.76 in WNW 4.5 mph 11.5 mph 72 % 0.00 in
21:04 40.3 °F 32.0 °F 29.76 in NW 5.0 mph 12.7 mph 72 % 0.00 in
21:09 40.2 °F 31.9 °F 29.76 in WNW 5.2 mph 11.5 mph 72 % 0.00 in
21:15 40.1 °F 31.4 °F 29.77 in WNW 8.1 mph 10.0 mph 71 % 0.00 in
21:20 40.0 °F 31.4 °F 29.77 in WNW 8.5 mph 13.0 mph 71 % 0.00 in
21:25 39.9 °F 30.9 °F 29.78 in NW 4.6 mph 9.2 mph 70 % 0.00 in
21:35 39.7 °F 30.7 °F 29.78 in NW 4.9 mph 9.2 mph 70 % 0.00 in
21:40 39.6 °F 31.0 °F 29.79 in WSW 0.4 mph 6.9 mph 71 % 0.00 in
21:45 39.4 °F 30.8 °F 29.80 in WNW 5.6 mph 11.5 mph 71 % 0.00 in
21:50 39.3 °F 30.7 °F 29.80 in WNW 4.1 mph 6.0 mph 71 % 0.00 in
21:55 39.1 °F 30.5 °F 29.81 in West 3.0 mph 6.9 mph 71 % 0.00 in
22:00 38.9 °F 30.3 °F 29.82 in NW 5.4 mph 9.2 mph 71 % 0.00 in
22:05 38.8 °F 30.5 °F 29.82 in WNW 5.0 mph 10.0 mph 72 % 0.00 in
22:10 38.7 °F 30.4 °F 29.82 in WNW 4.7 mph 7.0 mph 72 % 0.00 in
22:15 38.6 °F 30.0 °F 29.83 in WNW 3.2 mph 10.4 mph 71 % 0.00 in
22:20 38.4 °F 29.8 °F 29.83 in WNW 1.4 mph 4.6 mph 71 % 0.00 in
22:25 38.4 °F 29.8 °F 29.84 in NW 2.8 mph 10.4 mph 71 % 0.00 in
22:30 38.3 °F 29.7 °F 29.84 in WNW 3.7 mph 4.6 mph 71 % 0.00 in
22:35 38.2 °F 29.6 °F 29.84 in NW 1.0 mph 3.5 mph 71 % 0.00 in
22:40 38.0 °F 29.8 °F 29.85 in NW 1.3 mph 2.3 mph 72 % 0.00 in
22:45 37.9 °F 30.0 °F 29.85 in NW 2.2 mph 4.0 mph 73 % 0.00 in
22:51 37.7 °F 30.2 °F 29.85 in NW 3.0 mph 7.0 mph 74 % 0.00 in
22:56 37.5 °F 30.3 °F 29.85 in NW 2.0 mph 7.0 mph 75 % 0.00 in
23:01 37.3 °F 29.8 °F 29.86 in NW 1.5 mph 3.5 mph 74 % 0.00 in
23:06 37.2 °F 29.7 °F 29.86 in Calm     74 % 0.00 in
23:11 37.1 °F 29.9 °F 29.88 in WNW 0.8 mph 3.5 mph 75 % 0.00 in
23:16 36.9 °F 29.4 °F 29.88 in North 4.0 mph 6.9 mph 74 % 0.00 in
23:21 36.8 °F 28.6 °F 29.88 in NNW 2.9 mph 5.8 mph 72 % 0.00 in
23:26 36.6 °F 28.4 °F 29.88 in NNW 3.1 mph 6.9 mph 72 % 0.00 in
23:31 36.6 °F 28.4 °F 29.89 in NW 1.6 mph 3.5 mph 72 % 0.00 in
23:36 36.6 °F 28.1 °F 29.90 in WNW 2.0 mph 5.8 mph 71 % 0.00 in
23:41 36.6 °F 28.4 °F 29.90 in Calm   1.2 mph 72 % 0.00 in
23:46 36.6 °F 28.4 °F 29.90 in North 0.2 mph 1.2 mph 72 % 0.00 in
23:51 36.5 °F 28.7 °F 29.91 in NW 0.4 mph 3.5 mph 73 % 0.00 in
23:56 36.5 °F 29.0 °F 29.91 in Calm   2.3 mph 74 % 0.00 in
Crab Meadow Weather
Compliments of Weather Underground - 3 mb

Script developed by  Jim McMurry - jmcmurry@mwt.net Adapted for the template by  Wim van der Kuil - Leuven-Template.eu

Astronomy: Earth is 93 million miles away from the Sun.